Time;durP1;ratioP1;P1;durP2;ratioP2;P2;SDS_P1;SDS_P2;PMS_P1;PMS_P2;Temp;Humidity;BMP_temperature;BMP_pressure;BME280_temperature;BME280_humidity;BME280_pressure;Samples;Min_cycle;Max_cycle;Signal;HPM_P1;HPM_P2
2021/07/13 00:02:31;;;;;;;6.53;1.77;;;;;;;14.76;100.00;99693.41;5051733;28;20051;-60
2021/07/13 00:05:37;;;;;;;6.32;1.02;;;;;;;14.80;100.00;99693.16;5051762;28;20048;-60
2021/07/13 00:08:41;;;;;;;6.65;2.20;;;;;;;14.87;100.00;99698.25;5051838;28;20052;-60
2021/07/13 00:11:44;;;;;;;7.45;2.25;;;;;;;14.83;100.00;99694.94;5050882;28;20048;-59
2021/07/13 00:14:48;;;;;;;4.80;1.52;;;;;;;14.79;100.00;99686.78;5050204;28;20430;-60
2021/07/13 00:17:53;;;;;;;8.70;1.70;;;;;;;14.77;100.00;99694.94;5050558;28;20071;-60
2021/07/13 00:20:58;;;;;;;3.30;1.20;;;;;;;14.75;100.00;99691.88;5053470;28;20056;-60
2021/07/13 00:24:02;;;;;;;6.63;1.98;;;;;;;14.74;100.00;99695.97;5053518;28;20378;-60
2021/07/13 00:27:06;;;;;;;13.82;2.35;;;;;;;14.72;100.00;99687.31;5052195;28;20064;-60
2021/07/13 00:30:12;;;;;;;3.63;1.55;;;;;;;14.65;100.00;99685.00;5053250;28;20071;-60
2021/07/13 00:33:16;;;;;;;8.15;1.30;;;;;;;14.56;100.00;99684.44;5053223;28;20382;-60
2021/07/13 00:36:19;;;;;;;3.70;1.52;;;;;;;14.49;100.00;99696.91;5053182;28;20051;-60
2021/07/13 00:39:23;;;;;;;6.03;1.83;;;;;;;14.47;100.00;99696.66;5052889;28;20052;-59
2021/07/13 00:42:26;;;;;;;7.47;2.00;;;;;;;14.49;100.00;99708.13;5052687;28;20051;-60
2021/07/13 00:45:30;;;;;;;8.85;2.25;;;;;;;14.55;100.00;99710.97;5052255;28;20048;-60
2021/07/13 00:48:34;;;;;;;9.77;1.90;;;;;;;14.47;100.00;99705.06;5052974;28;20040;-60
2021/07/13 00:51:38;;;;;;;4.75;1.42;;;;;;;14.44;100.00;99706.84;5052826;28;20062;-60
2021/07/13 00:54:43;;;;;;;9.27;1.33;;;;;;;14.40;100.00;99716.78;5051981;28;20036;-60
2021/07/13 00:57:46;;;;;;;9.00;1.30;;;;;;;14.37;100.00;99717.78;5052877;28;20051;-60
2021/07/13 01:00:52;;;;;;;3.58;0.80;;;;;;;14.40;100.00;99723.13;5052522;28;20393;-60
2021/07/13 01:03:57;;;;;;;6.05;1.40;;;;;;;14.26;100.00;99720.53;5052746;28;20056;-60
2021/07/13 01:07:11;;;;;;;2.55;0.98;;;;;;;14.26;100.00;99709.31;5052685;28;20051;-59
2021/07/13 01:10:20;;;;;;;1.80;0.63;;;;;;;14.32;100.00;99721.34;5052633;28;20052;-60
2021/07/13 01:13:43;;;;;;;3.75;1.52;;;;;;;14.37;100.00;99718.56;5052323;28;20505;-60
2021/07/13 01:16:55;;;;;;;6.13;1.08;;;;;;;14.35;100.00;99723.13;5052539;28;20829;-60
2021/07/13 01:20:26;;;;;;;3.90;1.13;;;;;;;14.31;100.00;99720.56;5052209;28;20064;-59
2021/07/13 01:24:07;;;;;;;3.10;0.80;;;;;;;14.37;100.00;99723.41;5052260;28;20085;-60
2021/07/13 01:27:36;;;;;;;1.20;0.40;;;;;;;14.37;100.00;99726.19;5051992;28;20060;-60
2021/07/13 01:30:46;;;;;;;3.40;0.63;;;;;;;14.38;100.00;99727.72;5050952;28;20044;-60
2021/07/13 01:33:53;;;;;;;6.10;1.33;;;;;;;14.39;100.00;99726.44;5051894;28;20044;-60
2021/07/13 01:37:00;;;;;;;7.97;0.85;;;;;;;14.38;100.00;99736.13;5052130;28;20480;-60
2021/07/13 01:40:08;;;;;;;4.35;0.95;;;;;;;14.33;100.00;99734.84;5052163;28;20884;-60
2021/07/13 01:43:12;;;;;;;2.22;0.57;;;;;;;14.32;100.00;99732.53;5052053;28;20052;-60
2021/07/13 01:46:16;;;;;;;2.17;0.77;;;;;;;14.37;100.00;99746.56;5052102;28;20052;-59
2021/07/13 01:49:22;;;;;;;10.05;1.67;;;;;;;14.36;100.00;99738.66;5051789;28;20052;-60
2021/07/13 01:52:28;;;;;;;1.95;0.73;;;;;;;14.39;100.00;99748.88;5051169;28;20052;-60
2021/07/13 01:55:33;;;;;;;1.38;0.93;;;;;;;14.48;100.00;99745.84;5051408;28;20055;-60
2021/07/13 01:58:39;;;;;;;4.72;1.38;;;;;;;14.51;100.00;99744.06;5051335;28;20512;-60
2021/07/13 02:01:46;;;;;;;3.58;0.80;;;;;;;14.56;100.00;99752.47;5051164;28;20048;-60
2021/07/13 02:04:51;;;;;;;2.65;1.23;;;;;;;14.47;100.00;99747.09;5051263;28;20051;-60
2021/07/13 02:08:00;;;;;;;0.95;0.30;;;;;;;14.44;100.00;99760.09;5052413;28;20068;-60
2021/07/13 02:11:06;;;;;;;2.17;0.82;;;;;;;14.48;100.00;99756.28;5051288;28;20052;-60
2021/07/13 02:14:10;;;;;;;4.35;0.63;;;;;;;14.53;100.00;99759.09;5033018;28;20044;-60
2021/07/13 02:17:14;;;;;;;1.40;0.47;;;;;;;14.59;100.00;99761.94;5033227;28;20048;-60
2021/07/13 02:20:20;;;;;;;2.35;0.85;;;;;;;14.67;100.00;99763.72;5032987;28;20052;-60
2021/07/13 02:23:24;;;;;;;5.30;1.25;;;;;;;14.70;100.00;99767.56;5032893;28;20053;-61
2021/07/13 02:26:37;;;;;;;3.10;0.85;;;;;;;14.68;100.00;99768.06;5032435;28;20434;-61
2021/07/13 02:29:55;;;;;;;2.05;0.82;;;;;;;14.64;100.00;99761.94;5033178;28;20053;-60
2021/07/13 02:33:17;;;;;;;6.05;1.50;;;;;;;14.58;100.00;99747.13;5031989;28;20410;-60
2021/07/13 02:36:26;;;;;;;3.72;0.63;;;;;;;14.57;100.00;99759.63;5033617;28;20056;-60
2021/07/13 02:39:33;;;;;;;5.55;1.42;;;;;;;14.59;100.00;99753.50;5032737;28;20044;-60
2021/07/13 02:42:37;;;;;;;4.47;0.82;;;;;;;14.65;100.00;99755.06;5032644;28;20117;-60
2021/07/13 02:45:42;;;;;;;2.90;0.93;;;;;;;14.69;100.00;99749.97;5031751;28;20057;-60
2021/07/13 02:48:46;;;;;;;4.82;1.33;;;;;;;14.72;100.00;99740.56;5032789;28;20052;-60
2021/07/13 02:51:51;;;;;;;2.63;1.00;;;;;;;14.67;100.00;99746.13;5032754;28;20044;-60
2021/07/13 02:55:05;;;;;;;5.93;1.02;;;;;;;14.67;100.00;99741.31;5032490;28;20045;-60
2021/07/13 02:58:09;;;;;;;6.00;1.05;;;;;;;14.66;100.00;99748.16;5032762;28;20052;-60
2021/07/13 03:01:13;;;;;;;1.88;0.55;;;;;;;14.54;100.00;99743.81;5032847;28;20048;-60
2021/07/13 03:04:19;;;;;;;3.08;0.57;;;;;;;14.55;100.00;99747.41;5032536;28;20092;-60
2021/07/13 03:07:23;;;;;;;5.43;0.90;;;;;;;14.53;100.00;99749.94;5032831;28;20052;-60
2021/07/13 03:10:28;;;;;;;4.72;1.23;;;;;;;14.45;100.00;99738.44;5032523;28;20056;-60
2021/07/13 03:13:32;;;;;;;3.85;1.25;;;;;;;14.27;100.00;99742.41;5050263;28;20048;-60
2021/07/13 03:16:36;;;;;;;4.38;1.00;;;;;;;14.13;100.00;99742.63;5052509;28;20390;-60
2021/07/13 03:19:40;;;;;;;7.47;1.45;;;;;;;14.12;100.00;99746.72;5052123;28;20048;-60
2021/07/13 03:22:48;;;;;;;3.15;1.35;;;;;;;14.16;100.00;99752.84;5052331;28;20366;-60
2021/07/13 03:25:52;;;;;;;4.78;1.08;;;;;;;14.18;100.00;99755.91;5052026;28;20060;-60
2021/07/13 03:28:59;;;;;;;2.17;0.60;;;;;;;14.24;100.00;99751.06;5052294;28;20492;-61
2021/07/13 03:32:03;;;;;;;6.05;0.98;;;;;;;14.20;100.00;99756.16;5052493;28;20047;-60
2021/07/13 03:35:08;;;;;;;4.82;1.27;;;;;;;14.24;100.00;99753.88;5052448;28;20401;-60
2021/07/13 03:38:12;;;;;;;2.65;1.02;;;;;;;14.23;100.00;99753.09;5052321;28;20063;-60
2021/07/13 03:41:16;;;;;;;6.38;1.48;;;;;;;14.19;100.00;99751.81;5051108;28;20540;-60
2021/07/13 03:44:20;;;;;;;5.07;1.13;;;;;;;14.17;100.00;99743.91;5052126;28;20512;-60
2021/07/13 03:47:23;;;;;;;7.35;1.77;;;;;;;14.18;100.00;99750.28;5052541;28;20044;-60
2021/07/13 03:50:33;;;;;;;5.07;1.10;;;;;;;14.15;100.00;99746.47;5051995;28;20052;-61
2021/07/13 03:53:36;;;;;;;7.32;1.40;;;;;;;14.13;100.00;99742.63;5053995;28;20055;-60
2021/07/13 03:56:41;;;;;;;2.97;0.65;;;;;;;14.07;100.00;99750.25;5055570;28;20410;-59
2021/07/13 03:59:44;;;;;;;7.05;1.25;;;;;;;14.01;100.00;99746.66;5066205;28;20054;-60
2021/07/13 04:02:48;;;;;;;6.05;1.27;;;;;;;13.94;100.00;99752.72;5055641;28;20051;-60
2021/07/13 04:05:51;;;;;;;3.42;1.85;;;;;;;13.87;100.00;99748.34;5056179;28;20052;-60
2021/07/13 04:08:55;;;;;;;5.93;1.52;;;;;;;13.86;100.00;99758.00;5055491;28;20528;-61
2021/07/13 04:11:59;;;;;;;7.90;2.10;;;;;;;13.91;100.00;99756.50;5055369;28;20433;-60
2021/07/13 04:15:04;;;;;;;2.28;1.05;;;;;;;13.96;100.00;99755.78;5055330;28;20485;-61
2021/07/13 04:18:07;;;;;;;2.88;0.93;;;;;;;14.00;100.00;99767.50;5055188;28;20512;-61
2021/07/13 04:21:11;;;;;;;3.72;0.95;;;;;;;14.04;100.00;99762.44;5055116;28;20509;-61
2021/07/13 04:24:15;;;;;;;5.47;1.30;;;;;;;14.04;100.00;99766.00;5055235;28;20056;-61
2021/07/13 04:27:18;;;;;;;4.40;1.65;;;;;;;14.10;100.00;99771.63;5053832;28;20052;-61
2021/07/13 04:30:21;;;;;;;5.85;1.55;;;;;;;14.17;100.00;99776.75;5055000;28;20088;-61
2021/07/13 04:33:25;;;;;;;4.78;1.17;;;;;;;14.23;100.00;99774.75;5054557;28;20056;-61
2021/07/13 04:36:29;;;;;;;1.73;0.60;;;;;;;14.32;100.00;99777.34;5054705;28;20064;-61
2021/07/13 04:39:32;;;;;;;6.53;1.48;;;;;;;14.35;100.00;99781.97;5054816;28;20048;-61
2021/07/13 04:42:36;;;;;;;6.88;1.65;;;;;;;14.34;100.00;99774.81;5054402;28;20052;-61
2021/07/13 04:45:40;;;;;;;6.65;1.63;;;;;;;14.46;100.00;99782.00;5054761;28;20386;-60
2021/07/13 04:48:43;;;;;;;5.80;1.55;;;;;;;14.52;100.00;99784.81;5054811;28;20397;-60
2021/07/13 04:51:47;;;;;;;2.55;0.55;;;;;;;14.58;100.00;99794.78;5054564;28;20044;-60
2021/07/13 04:54:50;;;;;;;2.50;1.30;;;;;;;14.58;100.00;99791.97;5054761;28;20056;-61
2021/07/13 04:57:54;;;;;;;5.88;1.25;;;;;;;14.60;100.00;99792.25;5054192;28;20060;-61
2021/07/13 05:00:58;;;;;;;6.78;1.98;;;;;;;14.73;100.00;99800.16;5054628;28;20060;-60
2021/07/13 05:04:01;;;;;;;3.90;1.27;;;;;;;14.78;100.00;99802.22;5053581;28;20060;-61
2021/07/13 05:07:04;;;;;;;4.70;1.45;;;;;;;14.79;100.00;99807.31;5054696;28;20052;-61
2021/07/13 05:10:10;;;;;;;4.45;1.48;;;;;;;14.78;100.00;99805.81;5054276;28;20103;-61
2021/07/13 05:13:13;;;;;;;5.72;1.23;;;;;;;14.83;100.00;99804.28;5045103;28;20052;-61
2021/07/13 05:16:17;;;;;;;4.18;1.55;;;;;;;14.84;100.00;99805.81;5034326;28;20040;-61
2021/07/13 05:19:20;;;;;;;2.40;1.05;;;;;;;14.92;100.00;99807.63;5035393;28;20060;-61
2021/07/13 05:22:24;;;;;;;1.98;1.20;;;;;;;15.02;100.00;99810.97;5053108;28;20492;-62
2021/07/13 05:25:28;;;;;;;3.47;1.08;;;;;;;15.10;100.00;99801.53;5052840;28;20116;-62
2021/07/13 05:28:31;;;;;;;3.58;1.55;;;;;;;15.27;100.00;99801.56;5051974;28;20044;-61
2021/07/13 05:31:35;;;;;;;2.35;0.68;;;;;;;15.34;100.00;99817.13;5053567;28;20052;-61
2021/07/13 05:34:38;;;;;;;3.65;0.47;;;;;;;15.34;100.00;99815.09;5053989;28;20047;-61
2021/07/13 05:37:42;;;;;;;2.55;0.95;;;;;;;15.34;100.00;99812.28;5053542;28;20505;-61
2021/07/13 05:40:46;;;;;;;0.93;0.40;;;;;;;15.40;100.00;99815.09;5053712;28;20103;-61
2021/07/13 05:43:51;;;;;;;1.60;1.08;;;;;;;15.49;100.00;99812.03;5053725;28;20052;-61
2021/07/13 05:46:55;;;;;;;1.40;0.40;;;;;;;15.60;100.00;99814.84;5053081;28;20064;-61
2021/07/13 05:49:59;;;;;;;8.50;0.38;;;;;;;15.71;100.00;99814.84;5053995;28;20052;-62
2021/07/13 05:53:02;;;;;;;2.90;0.60;;;;;;;15.72;100.00;99810.78;5053927;28;20064;-62
2021/07/13 05:56:07;;;;;;;5.38;0.20;;;;;;;15.76;100.00;99816.91;5053508;28;20059;-62
2021/07/13 05:59:12;;;;;;;1.33;0.65;;;;;;;15.74;100.00;99822.25;5053788;28;20068;-61
2021/07/13 06:02:16;;;;;;;2.38;0.40;;;;;;;15.76;100.00;99823.28;5053424;28;20044;-61
2021/07/13 06:05:20;;;;;;;0.98;0.20;;;;;;;15.77;100.00;99824.81;5053381;28;20044;-61
2021/07/13 06:08:23;;;;;;;2.58;0.68;;;;;;;15.72;100.00;99828.38;5052891;28;20044;-61
2021/07/13 06:11:27;;;;;;;5.00;0.70;;;;;;;15.75;100.00;99832.19;5052736;28;20044;-61
2021/07/13 06:14:31;;;;;;;0.82;0.30;;;;;;;15.79;100.00;99832.69;5052786;28;20389;-61
2021/07/13 06:17:34;;;;;;;1.13;0.20;;;;;;;15.92;100.00;99847.00;5052801;28;20051;-61
2021/07/13 06:20:38;;;;;;;1.75;0.32;;;;;;;16.12;100.00;99848.75;5052871;28;20040;-61
2021/07/13 06:23:41;;;;;;;0.30;0.30;;;;;;;16.21;100.00;99852.06;5038077;28;20048;-61
2021/07/13 06:26:45;;;;;;;4.63;0.80;;;;;;;16.17;100.00;99851.56;5052666;28;20427;-61
2021/07/13 06:29:48;;;;;;;1.27;0.40;;;;;;;16.17;100.00;99851.56;5053151;28;20047;-61
2021/07/13 06:32:56;;;;;;;2.47;0.38;;;;;;;16.10;100.00;99852.09;5052768;28;20401;-60
2021/07/13 06:35:59;;;;;;;1.33;0.47;;;;;;;16.07;100.00;99858.72;5053470;28;20044;-60
2021/07/13 06:39:03;;;;;;;1.33;0.60;;;;;;;16.11;100.00;99858.47;5052459;28;20059;-61
2021/07/13 06:42:07;;;;;;;0.57;0.17;;;;;;;16.19;100.00;99860.25;5051891;28;20052;-60
2021/07/13 06:45:11;;;;;;;1.85;0.20;;;;;;;16.35;100.00;99870.66;5063130;28;20048;-60
2021/07/13 06:48:15;;;;;;;0.30;0.20;;;;;;;16.61;100.00;99878.81;5051851;28;20052;-61
2021/07/13 06:51:19;;;;;;;0.32;0.10;;;;;;;16.75;100.00;99885.41;5052133;28;20048;-61
2021/07/13 06:54:22;;;;;;;0.63;0.20;;;;;;;16.79;100.00;99891.50;5052140;28;20043;-61
2021/07/13 06:57:25;;;;;;;3.67;0.28;;;;;;;16.81;100.00;99897.38;5052332;28;20048;-61
2021/07/13 07:00:30;;;;;;;0.80;0.25;;;;;;;16.78;100.00;99898.44;5052595;28;20047;-60
2021/07/13 07:03:35;;;;;;;2.25;0.35;;;;;;;16.81;100.00;99905.81;5052212;28;20044;-60
2021/07/13 07:06:49;;;;;;;0.10;0.00;;;;;;;16.74;100.00;99898.69;5052410;28;20047;-60
2021/07/13 07:09:56;;;;;;;2.20;0.40;;;;;;;16.69;100.00;99907.94;5051607;28;20705;-60
2021/07/13 07:12:59;;;;;;;2.38;0.30;;;;;;;16.63;100.00;99907.94;5052088;28;20064;-60
2021/07/13 07:16:03;;;;;;;1.65;0.30;;;;;;;16.59;100.00;99913.06;5052676;28;20385;-60
2021/07/13 07:19:07;;;;;;;1.58;0.10;;;;;;;16.70;100.00;99900.25;5052529;28;20052;-60
2021/07/13 07:22:12;;;;;;;0.73;0.20;;;;;;;16.81;100.00;99903.00;5052213;28;20051;-60
2021/07/13 07:25:16;;;;;;;0.63;0.20;;;;;;;17.10;100.00;99902.38;5052218;28;20040;-60
2021/07/13 07:28:20;;;;;;;1.83;0.50;;;;;;;17.33;100.00;99915.03;5053574;28;20056;-60
2021/07/13 07:31:23;;;;;;;1.30;0.10;;;;;;;17.59;100.00;99914.66;5056598;28;20056;-60
2021/07/13 07:34:27;;;;;;;1.25;0.10;;;;;;;17.79;100.00;99906.56;5056505;28;20373;-60
2021/07/13 07:37:30;;;;;;;0.90;0.40;;;;;;;17.89;100.00;99909.81;5056137;28;20501;-60
2021/07/13 07:40:34;;;;;;;0.30;0.20;;;;;;;17.82;100.00;99913.22;5055951;28;20493;-60
2021/07/13 07:43:37;;;;;;;0.47;0.30;;;;;;;17.72;100.00;99907.13;5056362;28;20076;-60
2021/07/13 07:46:42;;;;;;;0.77;0.20;;;;;;;17.67;100.00;99910.75;5056068;28;20044;-60
2021/07/13 07:49:45;;;;;;;2.13;0.10;;;;;;;17.48;100.00;99915.47;5056261;28;20060;-60
2021/07/13 07:52:49;;;;;;;2.95;0.28;;;;;;;17.35;100.00;99918.09;5056154;28;20044;-60
2021/07/13 07:55:54;;;;;;;3.78;0.75;;;;;;;17.17;100.00;99922.28;5055117;28;20390;-60
2021/07/13 07:58:59;;;;;;;2.78;0.80;;;;;;;17.07;100.00;99920.28;5056060;28;20052;-59
2021/07/13 08:02:02;;;;;;;0.50;0.15;;;;;;;16.94;100.00;99928.53;5055722;28;20055;-60
2021/07/13 08:05:07;;;;;;;0.60;0.28;;;;;;;16.85;100.00;99931.66;5055401;28;20051;-60
2021/07/13 08:08:11;;;;;;;0.20;0.10;;;;;;;16.73;100.00;99935.78;5055485;28;20043;-60
2021/07/13 08:11:14;;;;;;;0.73;0.22;;;;;;;16.67;100.00;99933.00;5055239;28;20060;-60
2021/07/13 08:14:17;;;;;;;1.30;0.20;;;;;;;16.60;100.00;99933.50;5035627;28;20508;-59
2021/07/13 08:17:21;;;;;;;4.38;0.10;;;;;;;16.58;100.00;99942.47;5035286;28;20044;-59
2021/07/13 08:20:25;;;;;;;0.90;0.38;;;;;;;16.65;100.00;99949.63;5035190;28;20040;-60
2021/07/13 08:23:30;;;;;;;2.17;0.10;;;;;;;16.74;100.00;99940.88;5035213;28;20048;-60
2021/07/13 08:26:33;;;;;;;0.30;0.20;;;;;;;16.83;100.00;99934.22;5034907;28;20060;-60
2021/07/13 08:29:37;;;;;;;0.85;0.20;;;;;;;17.03;100.00;99939.50;5035168;28;20048;-60
2021/07/13 08:32:41;;;;;;;0.50;0.20;;;;;;;17.39;100.00;99935.47;5035213;28;20041;-60
2021/07/13 08:35:44;;;;;;;2.58;0.43;;;;;;;17.81;100.00;99942.66;5034712;28;20056;-60
2021/07/13 08:38:48;;;;;;;0.80;0.20;;;;;;;18.13;100.00;99933.19;5034503;28;20441;-59
2021/07/13 08:41:52;;;;;;;0.52;0.13;;;;;;;18.17;100.00;99941.34;5034788;28;20048;-60
2021/07/13 08:44:57;;;;;;;0.10;0.10;;;;;;;18.14;100.00;99931.91;5034761;28;20060;-60
2021/07/13 08:48:02;;;;;;;1.55;0.20;;;;;;;18.06;100.00;99930.19;5035093;28;20417;-60
2021/07/13 08:51:06;;;;;;;2.65;0.20;;;;;;;18.02;100.00;99938.13;5034475;28;20041;-60
2021/07/13 08:54:10;;;;;;;0.10;0.00;;;;;;;17.96;100.00;99934.59;5034877;28;20395;-59
2021/07/13 08:57:14;;;;;;;0.35;0.17;;;;;;;18.03;100.00;99926.34;5034432;28;20049;-59
2021/07/13 09:00:19;;;;;;;1.85;0.20;;;;;;;18.25;100.00;99931.03;5034935;28;20060;-60
2021/07/13 09:03:23;;;;;;;0.55;0.45;;;;;;;18.24;100.00;99929.50;5034444;28;20048;-60
2021/07/13 09:06:47;;;;;;;1.13;0.20;;;;;;;18.74;100.00;99929.00;5034553;28;20044;-60
2021/07/13 09:09:53;;;;;;;0.20;0.00;;;;;;;19.44;100.00;99922.25;5034307;28;20052;-60
2021/07/13 09:12:57;;;;;;;0.50;0.20;;;;;;;19.33;100.00;99931.59;5046612;28;20440;-59
2021/07/13 09:16:02;;;;;;;3.20;0.35;;;;;;;19.32;100.00;99924.41;5054238;28;20163;-60
2021/07/13 09:19:06;;;;;;;2.78;0.50;;;;;;;19.72;100.00;99924.66;5054265;28;20044;-59
2021/07/13 09:22:20;;;;;;;0.63;0.22;;;;;;;20.18;100.00;99918.50;5054496;28;20052;-58
2021/07/13 09:25:31;;;;;;;0.90;0.10;;;;;;;20.80;100.00;99919.69;5054052;28;20398;-58
2021/07/13 09:28:35;;;;;;;0.80;0.20;;;;;;;21.39;100.00;99920.25;5054130;28;20516;-60
2021/07/13 09:31:40;;;;;;;1.00;0.35;;;;;;;21.08;100.00;99919.91;5054121;28;20466;-59
2021/07/13 09:34:57;;;;;;;2.60;0.20;;;;;;;20.82;100.00;99927.63;5054214;28;20107;-59
2021/07/13 09:38:02;;;;;;;0.30;0.03;;;;;;;20.60;100.00;99925.97;5054228;28;20064;-60
2021/07/13 09:41:06;;;;;;;0.13;0.08;;;;;;;20.25;100.00;99929.97;5054140;28;20048;-59
2021/07/13 09:44:11;;;;;;;0.20;0.00;;;;;;;19.76;100.00;99927.91;5053962;28;20048;-58
2021/07/13 09:47:30;;;;;;;1.42;0.15;;;;;;;19.40;100.00;99930.25;5054114;28;20056;-59
2021/07/13 09:50:39;;;;;;;0.10;0.10;;;;;;;19.22;100.00;99937.41;5052038;28;20501;-59
2021/07/13 09:53:43;;;;;;;7.07;0.30;;;;;;;19.12;100.00;99930.63;5054013;28;20060;-54
2021/07/13 09:56:47;;;;;;;0.38;0.08;;;;;;;19.16;100.00;99933.13;5053586;28;20048;-54
2021/07/13 09:59:52;;;;;;;1.38;0.10;;;;;;;19.29;100.00;99933.97;5052976;28;20048;-53
2021/07/13 10:02:56;;;;;;;1.58;0.30;;;;;;;19.18;100.00;99931.28;5052921;28;20044;-53
2021/07/13 10:06:00;;;;;;;0.10;0.05;;;;;;;19.36;100.00;99927.00;5052302;28;20500;-54
2021/07/13 10:09:11;;;;;;;0.85;0.03;;;;;;;19.49;100.00;99927.06;5053247;28;20047;-54
2021/07/13 10:12:17;;;;;;;0.52;0.00;;;;;;;19.70;100.00;99918.78;5053374;28;20389;-53
2021/07/13 10:15:20;;;;;;;0.88;0.10;;;;;;;19.79;100.00;99913.50;5053579;28;20044;-52
2021/07/13 10:18:24;;;;;;;1.08;0.10;;;;;;;20.00;100.00;99924.97;5053385;28;20385;-53
2021/07/13 10:21:29;;;;;;;0.40;0.20;;;;;;;20.08;100.00;99914.53;5053308;28;20048;-52
2021/07/13 10:24:34;;;;;;;0.30;0.10;;;;;;;20.66;100.00;99901.16;5052234;28;20048;-53
2021/07/13 10:27:40;;;;;;;0.00;0.00;;;;;;;20.97;100.00;99903.09;5052658;28;20063;-52
2021/07/13 10:30:45;;;;;;;0.20;0.17;;;;;;;20.85;100.00;99895.41;5053614;28;20048;-53
2021/07/13 10:33:56;;;;;;;1.98;0.10;;;;;;;20.72;100.00;99896.16;5053394;28;20512;-54
2021/07/13 10:37:22;;;;;;;0.10;0.00;;;;;;;20.61;100.00;99910.53;5053102;28;20063;-53
2021/07/13 10:40:25;;;;;;;0.10;0.00;;;;;;;20.35;100.00;99921.81;5054309;28;20048;-52
2021/07/13 10:43:34;;;;;;;2.50;0.20;;;;;;;20.42;100.00;99926.06;5053101;28;20056;-53
2021/07/13 10:46:38;;;;;;;0.98;0.05;;;;;;;20.49;100.00;99920.53;5053037;28;20067;-52
2021/07/13 10:49:41;;;;;;;0.30;0.10;;;;;;;20.53;100.00;99915.28;5053030;28;20350;-52
2021/07/13 10:52:53;;;;;;;0.63;0.10;;;;;;;20.81;100.00;99924.00;5052897;28;20496;-52
2021/07/13 10:55:57;;;;;;;0.10;0.00;;;;;;;21.08;100.00;99925.56;5052878;28;20047;-53
2021/07/13 10:59:20;;;;;;;0.10;0.00;;;;;;;21.12;100.00;99920.31;5052758;28;20044;-53
2021/07/13 11:02:33;;;;;;;0.10;0.00;;;;;;;21.13;100.00;99930.34;5052634;28;20382;-53
2021/07/13 11:05:43;;;;;;;0.57;0.10;;;;;;;21.16;100.00;99933.41;5052082;28;20055;-53
2021/07/13 11:08:50;;;;;;;0.47;0.10;;;;;;;21.05;100.00;99932.31;5052410;28;20060;-53
2021/07/13 11:12:13;;;;;;;0.50;0.10;;;;;;;20.94;100.00;99924.00;5052215;28;20040;-53
2021/07/13 11:15:16;;;;;;;0.52;0.10;;;;;;;20.96;100.00;99926.31;5052135;28;20055;-53
2021/07/13 11:18:31;;;;;;;0.10;0.00;;;;;;;21.21;100.00;99924.00;5052203;28;20051;-52
2021/07/13 11:21:37;;;;;;;1.20;0.20;;;;;;;21.37;100.00;99917.22;5052524;28;20040;-52
2021/07/13 11:24:40;;;;;;;0.50;0.00;;;;;;;21.95;100.00;99925.41;5051843;28;20048;-53
2021/07/13 11:27:44;;;;;;;0.20;0.10;;;;;;;22.06;100.00;99925.91;5051969;28;20044;-52
2021/07/13 11:30:49;;;;;;;0.57;0.10;;;;;;;22.13;100.00;99918.78;5051889;28;20044;-52
2021/07/13 11:33:52;;;;;;;0.10;0.00;;;;;;;21.83;100.00;99913.56;5052032;28;20059;-52
2021/07/13 11:36:56;;;;;;;0.43;0.00;;;;;;;22.22;100.00;99919.03;5051876;28;20044;-52
2021/07/13 11:40:01;;;;;;;0.20;0.10;;;;;;;22.69;100.00;99918.09;5052341;28;20055;-52
2021/07/13 11:43:04;;;;;;;0.22;0.00;;;;;;;22.60;100.00;99917.28;5052395;28;20394;-53
2021/07/13 11:46:19;;;;;;;0.10;0.00;;;;;;;22.32;100.00;99917.25;5052665;28;20052;-52
2021/07/13 11:49:26;;;;;;;0.13;0.03;;;;;;;22.06;100.00;99914.56;5052168;28;20052;-52
2021/07/13 11:52:29;;;;;;;0.10;0.00;;;;;;;21.94;100.00;99906.91;5051977;28;20060;-52
2021/07/13 11:55:32;;;;;;;0.30;0.00;;;;;;;22.20;100.00;99915.25;5051547;28;20044;-53
2021/07/13 11:58:36;;;;;;;0.77;0.03;;;;;;;22.46;100.00;99910.16;5051773;28;20048;-53
2021/07/13 12:01:40;;;;;;;1.08;0.00;;;;;;;22.53;100.00;99917.19;5052298;28;20044;-54
2021/07/13 12:04:49;;;;;;;0.90;0.10;;;;;;;22.46;100.00;99927.19;5051492;28;20060;-53
2021/07/13 12:07:53;;;;;;;1.15;0.10;;;;;;;22.36;100.00;99914.06;5051372;28;20163;-54
2021/07/13 12:10:56;;;;;;;0.30;0.00;;;;;;;22.48;100.00;99927.38;5051671;28;20044;-53
2021/07/13 12:14:02;;;;;;;0.20;0.00;;;;;;;22.29;100.00;99938.22;5032400;28;20045;-54
2021/07/13 12:17:07;;;;;;;1.77;0.32;;;;;;;22.22;100.00;99921.13;5035662;28;20044;-53
2021/07/13 12:20:11;;;;;;;0.85;0.10;;;;;;;21.86;100.00;99930.25;5035513;28;20057;-53
2021/07/13 12:23:16;;;;;;;1.33;0.00;;;;;;;21.49;100.00;99941.16;5035362;28;20061;-54
2021/07/13 12:26:19;;;;;;;0.10;0.00;;;;;;;21.05;100.00;99937.97;5034900;28;20057;-53
2021/07/13 12:29:32;;;;;;;0.10;0.00;;;;;;;21.21;100.00;99941.00;5034769;28;20068;-53
2021/07/13 12:32:37;;;;;;;0.47;0.00;;;;;;;21.49;100.00;99930.59;5035480;28;20109;-53
2021/07/13 12:35:41;;;;;;;0.10;0.00;;;;;;;21.60;100.00;99935.25;5035083;28;20044;-54
2021/07/13 12:38:44;;;;;;;0.50;0.10;;;;;;;21.76;100.00;99939.78;5035453;28;20048;-53
2021/07/13 12:42:05;;;;;;;1.25;0.20;;;;;;;22.20;100.00;99935.88;5035192;28;20501;-53
2021/07/13 12:45:15;;;;;;;;;;;;;;;22.71;100.00;99943.84;5035543;28;20049;-54
2021/07/13 12:48:29;;;;;;;;;;;;;;;22.48;100.00;99943.69;5034456;28;19913;-54
2021/07/13 12:51:34;;;;;;;0.10;0.10;;;;;;;23.03;100.00;99947.06;5034734;28;19913;-54
2021/07/13 12:55:00;;;;;;;0.20;0.10;;;;;;;22.94;100.00;99948.34;5034464;28;20044;-54
2021/07/13 12:58:08;;;;;;;0.30;0.03;;;;;;;22.69;100.00;99957.84;5034856;28;20057;-54
2021/07/13 13:01:16;;;;;;;0.47;0.00;;;;;;;22.66;100.00;99948.38;5034616;28;20056;-54
2021/07/13 13:04:20;;;;;;;0.30;0.00;;;;;;;22.77;100.00;99961.50;5034422;28;20406;-54
2021/07/13 13:07:23;;;;;;;0.68;0.10;;;;;;;22.83;100.00;99956.41;5033405;28;20048;-54
2021/07/13 13:10:28;;;;;;;0.75;0.10;;;;;;;22.73;100.00;99955.41;5034510;28;20500;-54
2021/07/13 13:13:34;;;;;;;3.22;0.00;;;;;;;22.30;100.00;99962.44;5051310;28;20485;-54
2021/07/13 13:16:40;;;;;;;0.30;0.10;;;;;;;21.78;100.00;99963.44;5054500;28;20040;-54
2021/07/13 13:19:46;;;;;;;0.82;0.40;;;;;;;21.48;100.00;99965.16;5054510;28;20052;-54
2021/07/13 13:22:51;;;;;;;0.93;0.10;;;;;;;21.32;100.00;99969.09;5054218;28;20052;-54
2021/07/13 13:25:55;;;;;;;0.20;0.10;;;;;;;21.39;100.00;99962.78;5054039;28;20481;-54
2021/07/13 13:29:00;;;;;;;0.50;0.20;;;;;;;21.58;100.00;99960.53;5053923;28;20059;-54
2021/07/13 13:32:04;;;;;;;0.30;0.10;;;;;;;21.92;100.00;99966.97;5054286;28;20044;-54
2021/07/13 13:35:13;;;;;;;0.13;0.00;;;;;;;22.17;100.00;99968.19;5054038;28;20052;-54
2021/07/13 13:41:32;;;;;;;2.58;0.15;;;;;;;22.69;100.00;99957.84;5053576;28;20040;-54
2021/07/13 13:44:36;;;;;;;0.98;0.30;;;;;;;23.00;100.00;99953.91;5053683;28;20044;-54
2021/07/13 13:47:40;;;;;;;0.47;0.10;;;;;;;23.03;100.00;99949.91;5053736;28;20056;-54
2021/07/13 13:50:43;;;;;;;2.08;0.00;;;;;;;22.89;100.00;99959.88;5053872;28;20059;-54
2021/07/13 13:53:47;;;;;;;0.45;0.10;;;;;;;22.83;100.00;99956.41;5053901;28;20051;-54
2021/07/13 13:56:50;;;;;;;0.20;0.10;;;;;;;23.02;100.00;99954.09;5053660;28;20051;-54
2021/07/13 13:59:54;;;;;;;0.68;0.00;;;;;;;23.45;100.00;99948.44;5053687;28;20135;-54
2021/07/13 14:02:58;;;;;;;0.60;0.10;;;;;;;23.76;100.00;99950.03;5053612;28;20393;-54
2021/07/13 14:06:02;;;;;;;0.30;0.10;;;;;;;23.90;100.00;99956.34;5053774;28;20497;-54
2021/07/13 14:09:06;;;;;;;0.75;0.00;;;;;;;23.80;100.00;99955.38;5053413;28;20067;-54
2021/07/13 14:12:11;;;;;;;0.50;0.10;;;;;;;23.55;100.00;99954.34;5052864;28;20048;-58
2021/07/13 14:15:17;;;;;;;0.15;0.10;;;;;;;23.66;100.00;99945.47;5053445;28;20045;-58
2021/07/13 14:18:21;;;;;;;0.70;0.20;;;;;;;23.47;100.00;99945.03;5053487;28;20044;-58
2021/07/13 14:21:25;;;;;;;0.30;0.20;;;;;;;23.31;100.00;99947.03;5053094;28;20492;-58
2021/07/13 14:24:29;;;;;;;0.57;0.10;;;;;;;23.17;100.00;99945.66;5053108;28;20040;-59
2021/07/13 14:27:33;;;;;;;1.33;0.17;;;;;;;23.40;100.00;99948.59;5052929;28;20063;-58
2021/07/13 14:30:36;;;;;;;0.10;0.00;;;;;;;23.37;100.00;99941.94;5053326;28;20406;-59